Time;durP1;ratioP1;P1;durP2;ratioP2;P2;SDS_P1;SDS_P2;PMS_P1;PMS_P2;Temp;Humidity;BMP_temperature;BMP_pressure;BME280_temperature;BME280_humidity;BME280_pressure;Samples;Min_cycle;Max_cycle;Signal;HPM_P1;HPM_P2
2022/05/07 00:02:29;;;;;;;33.92;20.30;;;;;;;;;;4323557;80;28561;-87
2022/05/07 00:08:29;;;;;;;35.58;22.50;;;;;;;;;;4342525;80;28506;-85
2022/05/07 00:14:30;;;;;;;36.38;23.40;;;;;;;;;;4366635;79;28511;-87
2022/05/07 00:20:32;;;;;;;38.05;23.47;;;;;;;;;;4372242;80;28502;-85
2022/05/07 00:26:33;;;;;;;35.50;23.18;;;;;;;;;;4316335;81;28510;-84
2022/05/07 00:32:34;;;;;;;42.23;24.32;;;;;;;;;;4301494;81;28522;-86
2022/05/07 00:38:35;;;;;;;40.65;24.87;;;;;;;;;;4326685;80;28555;-86
2022/05/07 00:44:36;;;;;;;42.43;22.67;;;;;;;;;;4328331;80;28518;-86
2022/05/07 00:56:57;;;;;;;39.70;24.80;;;;;;;;;;4301912;80;28502;-85
2022/05/07 01:02:58;;;;;;;39.53;24.65;;;;;;;;;;4331687;80;28529;-85
2022/05/07 01:09:00;;;;;;;38.78;25.08;;;;;;;;;;4323617;80;28552;-86
2022/05/07 01:15:04;;;;;;;35.65;22.25;;;;;;;;;;4323714;80;28509;-84
2022/05/07 01:21:08;;;;;;;37.85;22.40;;;;;;;;;;4378021;80;28517;-85
2022/05/07 01:27:09;;;;;;;36.03;23.27;;;;;;;;;;4334927;80;28514;-85
2022/05/07 01:33:10;;;;;;;37.75;24.45;;;;;;;;;;4347787;80;28471;-84
2022/05/07 01:39:12;;;;;;;37.85;23.50;;;;;;;;;;4362113;80;28522;-87
2022/05/07 01:45:12;;;;;;;40.35;23.73;;;;;;;;;;4363154;81;28546;-87
2022/05/07 01:51:14;;;;;;;37.60;23.73;;;;;;;;;;4350686;80;28478;-86
2022/05/07 01:57:15;;;;;;;39.33;24.02;;;;;;;;;;4363737;80;28515;-86
2022/05/07 02:03:16;;;;;;;39.67;24.12;;;;;;;;;;4291170;80;28455;-86
2022/05/07 02:09:18;;;;;;;36.42;22.25;;;;;;;;;;4306354;81;28552;-87
2022/05/07 02:15:20;;;;;;;33.83;21.50;;;;;;;;;;4354780;81;28491;-86
2022/05/07 02:21:23;;;;;;;39.23;22.77;;;;;;;;;;4430798;79;28523;-85
2022/05/07 02:27:24;;;;;;;36.42;22.95;;;;;;;;;;4405417;79;28520;-85
2022/05/07 02:33:27;;;;;;;35.98;22.62;;;;;;;;;;4352762;80;28455;-85
2022/05/07 02:39:28;;;;;;;40.50;24.95;;;;;;;;;;4346125;80;28573;-86
2022/05/07 02:45:30;;;;;;;34.90;21.57;;;;;;;;;;4328823;81;28519;-86
2022/05/07 02:51:32;;;;;;;35.03;21.93;;;;;;;;;;4349520;80;28522;-85
2022/05/07 02:57:34;;;;;;;36.45;22.60;;;;;;;;;;4329479;80;28549;-85
2022/05/07 03:03:34;;;;;;;34.50;22.32;;;;;;;;;;4345593;80;28771;-87
2022/05/07 03:09:37;;;;;;;33.23;21.50;;;;;;;;;;4314831;80;28503;-85
2022/05/07 03:15:40;;;;;;;34.08;21.27;;;;;;;;;;4384040;79;28498;-86
2022/05/07 03:21:43;;;;;;;34.45;21.40;;;;;;;;;;4389509;80;28536;-87
2022/05/07 03:27:46;;;;;;;37.63;22.85;;;;;;;;;;4411627;79;28463;-88
2022/05/07 03:33:49;;;;;;;34.90;22.27;;;;;;;;;;4320303;80;28525;-87
2022/05/07 03:39:52;;;;;;;32.95;20.85;;;;;;;;;;4319878;80;28488;-87
2022/05/07 03:45:53;;;;;;;32.85;20.72;;;;;;;;;;4321888;80;28510;-85
2022/05/07 03:58:17;;;;;;;36.08;22.93;;;;;;;;;;4290525;80;28531;-87
2022/05/07 04:04:18;;;;;;;37.78;23.98;;;;;;;;;;4291456;80;28509;-86
2022/05/07 04:10:20;;;;;;;38.45;23.42;;;;;;;;;;4321579;80;28529;-86
2022/05/07 04:16:22;;;;;;;34.35;21.90;;;;;;;;;;4315486;80;28661;-87
2022/05/07 04:22:34;;;;;;;33.95;22.35;;;;;;;;;;4316885;80;28514;-87
2022/05/07 04:28:35;;;;;;;38.50;24.27;;;;;;;;;;4320034;80;28478;-85
2022/05/07 04:34:36;;;;;;;37.15;24.30;;;;;;;;;;4315482;80;28510;-86
2022/05/07 04:40:38;;;;;;;39.53;24.80;;;;;;;;;;4296108;80;28491;-87
2022/05/07 04:46:40;;;;;;;41.42;26.20;;;;;;;;;;4293843;80;28526;-84
2022/05/07 04:52:43;;;;;;;44.20;25.90;;;;;;;;;;4311576;80;28486;-87
2022/05/07 04:58:44;;;;;;;40.78;24.37;;;;;;;;;;4314227;80;28493;-85
2022/05/07 05:04:46;;;;;;;40.60;25.02;;;;;;;;;;4317457;80;28530;-85
2022/05/07 05:10:48;;;;;;;36.10;22.42;;;;;;;;;;4320202;80;28511;-85
2022/05/07 05:16:50;;;;;;;35.73;22.50;;;;;;;;;;4301022;81;28541;-81
2022/05/07 05:22:54;;;;;;;36.40;22.82;;;;;;;;;;4321374;80;28581;-80
2022/05/07 05:28:56;;;;;;;34.30;21.70;;;;;;;;;;4324618;80;28537;-80
2022/05/07 05:35:02;;;;;;;30.02;16.70;;;;;;;;;;4332963;80;28472;-81
2022/05/07 05:41:05;;;;;;;22.30;14.23;;;;;;;;;;4347503;80;28526;-81
2022/05/07 05:47:08;;;;;;;16.32;9.73;;;;;;;;;;4309362;80;28592;-77
2022/05/07 05:53:12;;;;;;;15.53;8.45;;;;;;;;;;4332183;80;28488;-78
2022/05/07 05:59:14;;;;;;;11.60;6.78;;;;;;;;;;4344298;80;28528;-79
2022/05/07 06:05:17;;;;;;;11.15;6.67;;;;;;;;;;4324758;82;28579;-79
2022/05/07 06:11:20;;;;;;;12.05;6.78;;;;;;;;;;4348657;80;28591;-79
2022/05/07 06:17:22;;;;;;;11.25;6.45;;;;;;;;;;4329212;81;28509;-79
2022/05/07 06:23:24;;;;;;;11.60;6.72;;;;;;;;;;4391197;79;28505;-80
2022/05/07 06:29:25;;;;;;;12.43;7.50;;;;;;;;;;4434363;79;28555;-79
2022/05/07 06:35:27;;;;;;;10.93;5.97;;;;;;;;;;4427725;79;28495;-79
2022/05/07 06:41:30;;;;;;;12.03;6.35;;;;;;;;;;4438073;79;28583;-79
2022/05/07 06:47:33;;;;;;;10.60;6.08;;;;;;;;;;4399222;79;28504;-79
2022/05/07 06:53:34;;;;;;;9.55;6.50;;;;;;;;;;4414586;80;28479;-79
2022/05/07 06:59:36;;;;;;;8.85;5.87;;;;;;;;;;4344114;81;28533;-81
2022/05/07 07:05:37;;;;;;;8.90;5.45;;;;;;;;;;4314109;80;28520;-80
2022/05/07 07:11:38;;;;;;;10.13;5.28;;;;;;;;;;4329519;81;28641;-79
2022/05/07 07:17:39;;;;;;;7.95;5.72;;;;;;;;;;4368643;80;28550;-78
2022/05/07 07:23:40;;;;;;;11.40;5.87;;;;;;;;;;4322398;81;28519;-79
2022/05/07 07:29:44;;;;;;;11.97;7.35;;;;;;;;;;4305519;79;28561;-80
2022/05/07 07:35:44;;;;;;;9.83;5.70;;;;;;;;;;4349725;81;28569;-79
2022/05/07 07:41:45;;;;;;;10.38;5.60;;;;;;;;;;4361372;81;28569;-77
2022/05/07 07:47:59;;;;;;;12.40;6.10;;;;;;;;;;4325314;81;28503;-79
2022/05/07 07:54:00;;;;;;;8.25;5.55;;;;;;;;;;4327078;81;28631;-79
2022/05/07 08:00:01;;;;;;;9.70;5.75;;;;;;;;;;4311811;81;28964;-78
2022/05/07 08:06:03;;;;;;;10.32;5.70;;;;;;;;;;4331343;81;28546;-79
2022/05/07 08:12:04;;;;;;;7.97;5.92;;;;;;;;;;4304535;80;28543;-79
2022/05/07 08:18:05;;;;;;;12.20;5.80;;;;;;;;;;4322206;80;28557;-80
2022/05/07 08:24:14;;;;;;;9.55;5.58;;;;;;;;;;4273092;81;28560;-79
2022/05/07 08:30:18;;;;;;;9.15;5.30;;;;;;;;;;4312708;81;28565;-78
2022/05/07 08:36:19;;;;;;;9.60;5.45;;;;;;;;;;4291424;81;28575;-77
2022/05/07 08:42:20;;;;;;;11.48;6.33;;;;;;;;;;4328455;81;28548;-82
2022/05/07 08:48:21;;;;;;;12.13;5.78;;;;;;;;;;4328799;80;28499;-79
2022/05/07 08:54:24;;;;;;;8.63;5.53;;;;;;;;;;4286732;80;28579;-81
2022/05/07 09:00:25;;;;;;;10.68;6.05;;;;;;;;;;4329143;80;28554;-80
2022/05/07 09:06:26;;;;;;;12.98;6.75;;;;;;;;;;4306860;81;28597;-79
2022/05/07 09:12:29;;;;;;;13.28;6.60;;;;;;;;;;4315629;80;28561;-82
2022/05/07 09:18:30;;;;;;;8.85;5.60;;;;;;;;;;4324961;80;28525;-81
2022/05/07 09:24:31;;;;;;;10.25;6.05;;;;;;;;;;4333682;80;28524;-80
2022/05/07 09:30:32;;;;;;;9.65;5.00;;;;;;;;;;4310486;81;28526;-81
2022/05/07 09:36:34;;;;;;;9.68;5.72;;;;;;;;;;4323412;81;28619;-80
2022/05/07 09:42:35;;;;;;;9.23;5.65;;;;;;;;;;4365268;80;28494;-81
2022/05/07 09:48:38;;;;;;;8.30;5.08;;;;;;;;;;4422404;79;28508;-79
2022/05/07 10:01:07;;;;;;;8.98;5.35;;;;;;;;;;4399471;79;28525;-80
2022/05/07 10:07:12;;;;;;;8.70;5.10;;;;;;;;;;4299234;82;28534;-80
2022/05/07 10:13:14;;;;;;;8.15;4.90;;;;;;;;;;4423450;79;28516;-80
2022/05/07 10:19:16;;;;;;;7.75;4.22;;;;;;;;;;4399276;79;28529;-80
2022/05/07 10:25:19;;;;;;;8.65;4.67;;;;;;;;;;4427687;79;28476;-80
2022/05/07 10:31:23;;;;;;;5.85;4.37;;;;;;;;;;4344943;80;28462;-80
2022/05/07 10:37:24;;;;;;;7.30;4.40;;;;;;;;;;4322351;81;28525;-80
2022/05/07 10:43:38;;;;;;;8.08;4.40;;;;;;;;;;4339456;80;28511;-80
2022/05/07 10:49:58;;;;;;;8.20;4.40;;;;;;;;;;4355808;80;28486;-82
2022/05/07 10:55:59;;;;;;;7.80;4.75;;;;;;;;;;4351503;80;28514;-81
2022/05/07 11:02:04;;;;;;;6.83;3.92;;;;;;;;;;4336417;82;28546;-81
2022/05/07 11:08:05;;;;;;;7.62;4.75;;;;;;;;;;4323604;80;28564;-81
2022/05/07 11:14:06;;;;;;;9.78;4.55;;;;;;;;;;4377840;80;28488;-80
2022/05/07 11:20:07;;;;;;;8.73;5.03;;;;;;;;;;4343576;80;28525;-81
2022/05/07 11:26:10;;;;;;;6.55;4.90;;;;;;;;;;4340016;80;28546;-81
2022/05/07 11:32:12;;;;;;;8.73;4.67;;;;;;;;;;4283998;80;28549;-81
2022/05/07 11:38:13;;;;;;;7.87;4.45;;;;;;;;;;4309156;81;28509;-80
2022/05/07 11:50:52;;;;;;;7.83;4.58;;;;;;;;;;4329575;80;28532;-80
2022/05/07 11:56:53;;;;;;;7.87;4.67;;;;;;;;;;4310791;81;28453;-80
2022/05/07 12:02:55;;;;;;;7.40;3.80;;;;;;;;;;4300490;80;28538;-81
2022/05/07 12:08:56;;;;;;;6.37;3.85;;;;;;;;;;4319938;80;28465;-79
2022/05/07 12:14:58;;;;;;;6.28;3.98;;;;;;;;;;4318133;80;28495;-81
2022/05/07 12:20:59;;;;;;;7.65;3.90;;;;;;;;;;4337230;80;28552;-82
2022/05/07 12:33:20;;;;;;;8.48;3.92;;;;;;;;;;4336415;80;28512;-81
2022/05/07 12:39:21;;;;;;;5.85;4.28;;;;;;;;;;4325745;80;28595;-80
2022/05/07 12:45:22;;;;;;;7.55;4.30;;;;;;;;;;4341731;81;28600;-80
2022/05/07 12:51:25;;;;;;;7.60;4.10;;;;;;;;;;4338558;80;28556;-80
2022/05/07 12:57:26;;;;;;;5.75;3.52;;;;;;;;;;4332528;81;28516;-81
2022/05/07 13:03:27;;;;;;;5.37;3.62;;;;;;;;;;4347678;80;28510;-81
2022/05/07 13:09:29;;;;;;;7.75;4.12;;;;;;;;;;4331219;82;28498;-81
2022/05/07 13:15:29;;;;;;;8.58;4.50;;;;;;;;;;4335908;81;28529;-80
2022/05/07 13:21:31;;;;;;;7.08;4.58;;;;;;;;;;4326684;80;28554;-80
2022/05/07 13:27:33;;;;;;;7.08;4.10;;;;;;;;;;4325962;80;28517;-79
2022/05/07 13:33:34;;;;;;;6.37;4.70;;;;;;;;;;4347059;80;28501;-78
2022/05/07 13:39:40;;;;;;;5.75;4.00;;;;;;;;;;4281700;82;28532;-78
2022/05/07 13:45:41;;;;;;;7.17;4.83;;;;;;;;;;4315931;80;28619;-78
2022/05/07 13:51:42;;;;;;;9.38;4.95;;;;;;;;;;4311329;80;28541;-78
2022/05/07 13:57:43;;;;;;;8.88;4.95;;;;;;;;;;4332997;80;28494;-74
2022/05/07 14:03:48;;;;;;;11.38;5.35;;;;;;;;;;4299673;80;28644;-81
2022/05/07 14:09:48;;;;;;;5.60;4.45;;;;;;;;;;4311352;80;28505;-82
2022/05/07 14:15:50;;;;;;;8.28;4.78;;;;;;;;;;4314095;80;28517;-81
2022/05/07 14:21:51;;;;;;;7.33;4.65;;;;;;;;;;4333716;79;28597;-80
2022/05/07 14:27:52;;;;;;;9.33;5.62;;;;;;;;;;4394159;79;28530;-80
2022/05/07 14:33:53;;;;;;;9.10;5.20;;;;;;;;;;4368856;79;28473;-81
2022/05/07 14:39:54;;;;;;;9.85;5.03;;;;;;;;;;4373912;79;28610;-81
2022/05/07 14:45:55;;;;;;;9.08;5.70;;;;;;;;;;4394159;81;28498;-79
2022/05/07 14:51:56;;;;;;;8.20;5.25;;;;;;;;;;4385295;79;28471;-81
2022/05/07 14:57:57;;;;;;;8.73;5.53;;;;;;;;;;4371076;79;28489;-78
2022/05/07 15:03:58;;;;;;;7.90;5.20;;;;;;;;;;4392657;79;28553;-79
2022/05/07 15:16:22;;;;;;;10.23;5.05;;;;;;;;;;4403985;80;28470;-81
2022/05/07 15:22:23;;;;;;;7.75;4.92;;;;;;;;;;4416037;79;28605;-81
2022/05/07 15:28:24;;;;;;;7.58;4.55;;;;;;;;;;4344487;81;28502;-81
2022/05/07 15:40:46;;;;;;;8.83;4.78;;;;;;;;;;4361701;81;28466;-82
2022/05/07 15:46:47;;;;;;;7.65;4.90;;;;;;;;;;4305937;80;28540;-81
2022/05/07 15:52:48;;;;;;;9.93;5.05;;;;;;;;;;4338575;80;28466;-81
2022/05/07 15:58:49;;;;;;;7.28;5.47;;;;;;;;;;4440231;79;28540;-80
2022/05/07 16:04:51;;;;;;;11.00;5.47;;;;;;;;;;4381011;79;28516;-80
2022/05/07 16:10:52;;;;;;;9.23;5.25;;;;;;;;;;4395159;80;28478;-80
2022/05/07 16:16:53;;;;;;;8.53;5.05;;;;;;;;;;4386488;80;28512;-81
2022/05/07 16:29:13;;;;;;;11.00;6.12;;;;;;;;;;4401500;79;28512;-81
2022/05/07 16:35:14;;;;;;;8.50;5.50;;;;;;;;;;4389241;81;28500;-81
2022/05/07 16:41:15;;;;;;;9.00;5.80;;;;;;;;;;4395704;81;28450;-81
2022/05/07 16:47:16;;;;;;;8.73;5.47;;;;;;;;;;4383703;81;28503;-80
2022/05/07 16:53:17;;;;;;;6.53;5.10;;;;;;;;;;4394568;79;28526;-81
2022/05/07 16:59:18;;;;;;;8.63;5.42;;;;;;;;;;4379861;81;28478;-81
2022/05/07 17:05:20;;;;;;;9.95;5.70;;;;;;;;;;4402425;79;28566;-81
2022/05/07 17:11:21;;;;;;;11.70;5.42;;;;;;;;;;4349731;79;28503;-81
2022/05/07 17:17:26;;;;;;;7.72;5.25;;;;;;;;;;4364600;79;28449;-82
2022/05/07 17:23:28;;;;;;;7.25;4.97;;;;;;;;;;4394041;80;28498;-80
2022/05/07 17:29:29;;;;;;;7.55;5.42;;;;;;;;;;4430210;79;28458;-82
2022/05/07 17:35:31;;;;;;;8.65;5.08;;;;;;;;;;4414802;79;28523;-78
2022/05/07 17:41:32;;;;;;;6.17;5.00;;;;;;;;;;4425287;79;28593;-84
2022/05/07 17:47:36;;;;;;;7.85;5.65;;;;;;;;;;4430418;79;28509;-86
2022/05/07 17:53:39;;;;;;;10.32;6.55;;;;;;;;;;4417355;79;28498;-83
2022/05/07 17:59:43;;;;;;;10.08;5.72;;;;;;;;;;4394694;79;28551;-79
2022/05/07 18:05:48;;;;;;;10.58;6.30;;;;;;;;;;4436016;79;28518;-79
2022/05/07 18:11:46;;;;;;;10.65;5.25;;;;;;;;;;4414973;79;28547;-79
2022/05/07 18:17:49;;;;;;;9.83;5.83;;;;;;;;;;4448206;79;28548;-77
2022/05/07 18:23:50;;;;;;;8.35;5.85;;;;;;;;;;4405861;78;28518;-79
2022/05/07 18:29:51;;;;;;;11.50;6.12;;;;;;;;;;4400171;79;28513;-82
2022/05/07 18:35:52;;;;;;;9.98;5.95;;;;;;;;;;4359350;80;28526;-81
2022/05/07 18:48:16;;;;;;;9.45;6.22;;;;;;;;;;4318688;80;28497;-82
2022/05/07 18:54:18;;;;;;;11.22;6.97;;;;;;;;;;4339620;80;28488;-82
2022/05/07 19:00:19;;;;;;;9.65;5.83;;;;;;;;;;4360222;79;28536;-81
2022/05/07 19:06:21;;;;;;;9.08;5.92;;;;;;;;;;4424414;79;28551;-80
2022/05/07 19:12:24;;;;;;;10.95;5.85;;;;;;;;;;4367681;79;28487;-82
2022/05/07 19:18:25;;;;;;;8.65;6.00;;;;;;;;;;4394040;79;28533;-80
2022/05/07 19:24:26;;;;;;;8.65;6.00;;;;;;;;;;4345275;80;28525;-83
2022/05/07 19:30:27;;;;;;;7.58;6.30;;;;;;;;;;4360719;80;28517;-81
2022/05/07 19:36:31;;;;;;;9.20;6.87;;;;;;;;;;4333698;80;28478;-83
2022/05/07 19:42:32;;;;;;;11.90;6.90;;;;;;;;;;4251921;82;28538;-84
2022/05/07 19:48:35;;;;;;;13.93;6.65;;;;;;;;;;4293544;82;28481;-83
2022/05/07 19:54:38;;;;;;;13.28;6.30;;;;;;;;;;4255689;82;28504;-83
2022/05/07 20:00:40;;;;;;;11.50;6.22;;;;;;;;;;4300509;81;28501;-82
2022/05/07 20:06:43;;;;;;;11.08;6.85;;;;;;;;;;4267663;82;28429;-82
2022/05/07 20:12:46;;;;;;;9.03;6.62;;;;;;;;;;4296273;81;28466;-81
2022/05/07 20:18:47;;;;;;;12.80;6.80;;;;;;;;;;4297736;78;28544;-89
2022/05/07 20:24:48;;;;;;;12.00;7.58;;;;;;;;;;4286525;81;28612;-88
2022/05/07 20:30:50;;;;;;;10.08;7.03;;;;;;;;;;4354024;80;28552;-91
2022/05/07 20:36:52;;;;;;;11.18;7.72;;;;;;;;;;4303089;81;28516;-85
2022/05/07 20:42:53;;;;;;;10.58;7.62;;;;;;;;;;4260813;82;28469;-86
2022/05/07 20:48:55;;;;;;;12.68;7.70;;;;;;;;;;4343793;80;28499;-87
2022/05/07 20:54:57;;;;;;;12.50;8.13;;;;;;;;;;4309200;82;28597;-87
2022/05/07 21:00:58;;;;;;;12.88;8.28;;;;;;;;;;4259556;82;28515;-88
2022/05/07 21:07:03;;;;;;;18.20;12.98;;;;;;;;;;4304174;82;28527;-79
2022/05/07 21:13:04;;;;;;;17.50;11.00;;;;;;;;;;4280269;82;28454;-80
2022/05/07 21:19:05;;;;;;;17.10;10.08;;;;;;;;;;4287945;80;28514;-79
2022/05/07 21:31:26;;;;;;;14.80;10.00;;;;;;;;;;4309720;81;28523;-80
2022/05/07 21:37:27;;;;;;;16.80;9.85;;;;;;;;;;4367145;81;28545;-81
2022/05/07 21:43:29;;;;;;;15.18;10.10;;;;;;;;;;4369338;80;28576;-80
2022/05/07 21:49:32;;;;;;;15.93;10.93;;;;;;;;;;4369551;80;28532;-81
2022/05/07 21:55:33;;;;;;;19.37;11.65;;;;;;;;;;4390950;80;28491;-81
2022/05/07 22:01:34;;;;;;;26.37;17.12;;;;;;;;;;4384661;80;28474;-82
2022/05/07 22:07:35;;;;;;;22.42;14.00;;;;;;;;;;4385767;80;28457;-82
2022/05/07 22:13:36;;;;;;;20.43;13.43;;;;;;;;;;4381713;80;28514;-82
2022/05/07 22:19:37;;;;;;;19.40;12.75;;;;;;;;;;4381596;80;28614;-81
2022/05/07 22:25:38;;;;;;;23.87;14.68;;;;;;;;;;4359554;81;28514;-81
2022/05/07 22:31:39;;;;;;;20.32;13.58;;;;;;;;;;4376005;81;28510;-81
2022/05/07 22:37:40;;;;;;;22.50;14.03;;;;;;;;;;4367730;80;28516;-81
2022/05/07 22:43:41;;;;;;;21.27;14.13;;;;;;;;;;4371020;80;28518;-81
2022/05/07 22:49:43;;;;;;;21.70;14.38;;;;;;;;;;4324441;80;28499;-81
2022/05/07 22:55:44;;;;;;;21.60;14.35;;;;;;;;;;4355445;81;28499;-80
2022/05/07 23:01:45;;;;;;;23.25;13.40;;;;;;;;;;4363928;80;28472;-80
2022/05/07 23:07:46;;;;;;;24.82;14.60;;;;;;;;;;4338988;81;28530;-80
2022/05/07 23:13:47;;;;;;;23.87;14.45;;;;;;;;;;4346238;80;28508;-81
2022/05/07 23:19:48;;;;;;;23.18;15.38;;;;;;;;;;4367427;79;28503;-81
2022/05/07 23:25:49;;;;;;;23.67;14.87;;;;;;;;;;4353536;80;28505;-87
2022/05/07 23:31:50;;;;;;;26.65;15.32;;;;;;;;;;4341671;81;28459;-84
2022/05/07 23:37:52;;;;;;;21.90;14.83;;;;;;;;;;4356598;81;28494;-85
2022/05/07 23:43:52;;;;;;;27.00;16.75;;;;;;;;;;4361389;81;28493;-84
2022/05/07 23:49:53;;;;;;;28.77;18.17;;;;;;;;;;4343648;80;28538;-86
2022/05/07 23:55:54;;;;;;;28.42;17.55;;;;;;;;;;4351079;80;28522;-86
